createdAt,value
2024-01-15T00:00:41.599Z,23.44
2024-01-15T00:01:41.552Z,23.44
2024-01-15T00:02:41.601Z,23.44
2024-01-15T00:03:42.377Z,23.44
2024-01-15T00:04:41.701Z,23.44
2024-01-15T00:05:41.779Z,23.44
2024-01-15T00:06:41.921Z,23.43
2024-01-15T00:07:41.838Z,23.43
2024-01-15T00:08:41.870Z,23.44
2024-01-15T00:09:41.985Z,23.44
2024-01-15T00:10:42.013Z,23.43
2024-01-15T00:11:42.014Z,23.43
2024-01-15T00:12:42.142Z,23.43
2024-01-15T00:13:42.078Z,23.44
2024-01-15T00:14:42.057Z,23.43
2024-01-15T00:15:42.086Z,23.44
2024-01-15T00:16:42.052Z,23.44
2024-01-15T00:17:42.102Z,23.45
2024-01-15T00:18:42.201Z,23.47
2024-01-15T00:19:42.153Z,23.47
2024-01-15T00:20:42.083Z,23.47
2024-01-15T00:21:42.110Z,23.49
2024-01-15T00:22:42.081Z,23.50
2024-01-15T00:23:42.133Z,23.52
2024-01-15T00:24:42.254Z,23.53
2024-01-15T00:25:42.269Z,23.54
2024-01-15T00:26:42.270Z,23.56
2024-01-15T00:27:42.379Z,23.57
2024-01-15T00:28:42.342Z,23.58
2024-01-15T00:29:42.379Z,23.59
2024-01-15T00:30:42.483Z,23.60
2024-01-15T00:31:42.600Z,23.60
2024-01-15T00:32:42.578Z,23.61
2024-01-15T00:33:42.768Z,23.63
2024-01-15T00:34:42.714Z,23.64
2024-01-15T00:35:42.616Z,23.64
2024-01-15T00:36:42.663Z,23.65
2024-01-15T00:37:42.713Z,23.67
2024-01-15T00:38:42.757Z,23.67
2024-01-15T00:39:42.868Z,23.68
2024-01-15T00:40:42.925Z,23.69
2024-01-15T00:41:43.719Z,23.70
2024-01-15T00:42:43.078Z,23.71
2024-01-15T00:43:43.096Z,23.71
2024-01-15T00:44:43.167Z,23.72
2024-01-15T00:45:43.263Z,23.73
2024-01-15T00:46:43.308Z,23.73
2024-01-15T00:47:43.493Z,23.74
2024-01-15T00:48:43.532Z,23.75
2024-01-15T00:49:43.562Z,23.76
2024-01-15T00:50:43.592Z,23.76
2024-01-15T00:51:43.789Z,23.76
2024-01-15T00:52:43.721Z,23.77
2024-01-15T00:53:43.794Z,23.78
2024-01-15T00:54:43.912Z,23.78
2024-01-15T00:55:43.909Z,23.79
2024-01-15T00:56:44.015Z,23.80
2024-01-15T00:57:44.112Z,23.81
2024-01-15T00:58:44.130Z,23.82
2024-01-15T00:59:44.167Z,23.83
2024-01-15T01:00:44.370Z,23.83
2024-01-15T01:01:44.447Z,23.84
2024-01-15T01:02:44.271Z,23.84
2024-01-15T01:03:44.301Z,23.85
2024-01-15T01:04:44.245Z,23.86
2024-01-15T01:05:44.321Z,23.87
2024-01-15T01:06:44.332Z,23.87
2024-01-15T01:07:44.293Z,23.88
2024-01-15T01:08:44.350Z,23.88
2024-01-15T01:09:44.469Z,23.89
2024-01-15T01:10:44.360Z,23.90
2024-01-15T01:11:44.397Z,23.91
2024-01-15T01:12:44.554Z,23.91
2024-01-15T01:13:44.487Z,23.92
2024-01-15T01:14:44.545Z,23.93
2024-01-15T01:15:44.711Z,23.93
2024-01-15T01:16:44.688Z,23.93
2024-01-15T01:17:44.830Z,23.93
2024-01-15T01:18:44.946Z,23.95
2024-01-15T01:19:45.014Z,23.95
2024-01-15T01:20:44.960Z,23.96
2024-01-15T01:21:45.158Z,23.95
2024-01-15T01:22:45.045Z,23.97
2024-01-15T01:23:45.066Z,23.97
2024-01-15T01:24:45.156Z,23.97
2024-01-15T01:25:45.080Z,23.99
2024-01-15T01:26:45.078Z,24.00
2024-01-15T01:27:45.228Z,24.01
2024-01-15T01:28:45.089Z,24.02
2024-01-15T01:29:45.097Z,24.02
2024-01-15T01:30:45.278Z,24.03
2024-01-15T01:31:45.301Z,24.04
2024-01-15T01:32:45.170Z,24.05
2024-01-15T01:33:45.261Z,24.03
2024-01-15T01:34:45.207Z,24.05
2024-01-15T01:35:45.166Z,24.05
2024-01-15T01:36:45.302Z,24.06
2024-01-15T01:37:45.213Z,24.05
2024-01-15T01:38:45.194Z,24.07
2024-01-15T01:39:45.265Z,24.07
2024-01-15T01:40:45.213Z,24.07
2024-01-15T01:41:45.201Z,24.07
2024-01-15T01:42:45.333Z,24.07
2024-01-15T01:43:45.261Z,24.08
2024-01-15T01:44:45.262Z,24.08
2024-01-15T01:45:45.311Z,24.09
2024-01-15T01:46:45.230Z,24.10
2024-01-15T01:47:45.319Z,24.09
2024-01-15T01:48:45.298Z,24.09
2024-01-15T01:49:45.358Z,24.09
2024-01-15T01:50:45.332Z,24.10
2024-01-15T01:51:45.357Z,24.11
2024-01-15T01:52:45.305Z,24.12
2024-01-15T01:53:46.241Z,24.11
2024-01-15T01:54:45.372Z,24.12
2024-01-15T01:55:45.345Z,24.13
2024-01-15T01:56:45.349Z,24.13
2024-01-15T01:57:45.441Z,24.14
2024-01-15T01:58:45.395Z,24.14
2024-01-15T01:59:45.381Z,24.14
2024-01-15T02:00:45.491Z,24.15
2024-01-15T02:01:45.444Z,24.15
2024-01-15T02:02:45.381Z,24.15
2024-01-15T02:03:45.495Z,24.15
2024-01-15T02:04:45.484Z,24.16
2024-01-15T02:05:45.483Z,24.17
2024-01-15T02:06:45.550Z,24.18
2024-01-15T02:07:45.442Z,24.18
2024-01-15T02:08:45.420Z,24.18
2024-01-15T02:09:45.568Z,24.17
2024-01-15T02:10:45.502Z,24.17
2024-01-15T02:11:45.560Z,24.16
2024-01-15T02:12:45.640Z,24.17
2024-01-15T02:13:45.569Z,24.17
2024-01-15T02:14:45.539Z,24.16
2024-01-15T02:15:45.657Z,24.17
2024-01-15T02:16:45.606Z,24.17
2024-01-15T02:17:45.625Z,24.16
2024-01-15T02:18:45.840Z,24.16
2024-01-15T02:19:45.752Z,24.16
2024-01-15T02:20:45.870Z,24.16
2024-01-15T02:21:45.861Z,24.17
2024-01-15T02:22:45.835Z,24.17
2024-01-15T02:23:45.846Z,24.18
2024-01-15T02:24:45.938Z,24.19
2024-01-15T02:25:46.153Z,24.20
2024-01-15T02:26:45.975Z,24.20
2024-01-15T02:27:46.060Z,24.20
2024-01-15T02:28:46.043Z,24.20
2024-01-15T02:29:46.085Z,24.20
2024-01-15T02:30:46.476Z,24.20
2024-01-15T02:31:46.448Z,24.20
2024-01-15T02:32:46.300Z,24.22
2024-01-15T02:33:46.330Z,24.21
2024-01-15T02:34:46.403Z,24.22
2024-01-15T02:35:46.292Z,24.22
2024-01-15T02:36:46.416Z,24.23
2024-01-15T02:37:46.384Z,24.23
2024-01-15T02:38:46.412Z,24.24
2024-01-15T02:39:46.478Z,24.25
2024-01-15T02:40:46.508Z,24.24
2024-01-15T02:41:46.509Z,24.25
2024-01-15T02:42:46.607Z,24.25
2024-01-15T02:43:46.583Z,24.26
2024-01-15T02:44:46.614Z,24.25
2024-01-15T02:45:46.697Z,24.25
2024-01-15T02:46:46.712Z,24.24
2024-01-15T02:47:46.744Z,24.24
2024-01-15T02:48:46.878Z,24.24
2024-01-15T02:49:46.863Z,24.25
2024-01-15T02:50:46.848Z,24.25
2024-01-15T02:51:46.967Z,24.25
2024-01-15T02:52:46.943Z,24.25
2024-01-15T02:53:47.024Z,24.25
2024-01-15T02:54:47.055Z,24.26
2024-01-15T02:55:47.047Z,24.25
2024-01-15T02:56:47.137Z,24.25
2024-01-15T02:57:47.161Z,24.25
2024-01-15T02:58:47.184Z,24.25
2024-01-15T02:59:47.234Z,24.25
2024-01-15T03:00:47.313Z,24.26
2024-01-15T03:01:47.377Z,24.26
2024-01-15T03:02:48.859Z,24.25
2024-01-15T03:03:47.535Z,24.25
2024-01-15T03:04:47.424Z,24.26
2024-01-15T03:05:47.494Z,24.27
2024-01-15T03:06:47.553Z,24.28
2024-01-15T03:07:47.543Z,24.26
2024-01-15T03:08:47.582Z,24.26
2024-01-15T03:09:47.746Z,24.26
2024-01-15T03:10:47.629Z,24.27
2024-01-15T03:11:47.676Z,24.26
2024-01-15T03:12:47.821Z,24.26
2024-01-15T03:13:47.761Z,24.27
2024-01-15T03:14:47.789Z,24.27
2024-01-15T03:15:47.815Z,24.27
2024-01-15T03:16:47.829Z,24.27
2024-01-15T03:17:48.000Z,24.27
2024-01-15T03:18:47.987Z,24.27
2024-01-15T03:19:48.031Z,24.28
2024-01-15T03:20:47.970Z,24.28
2024-01-15T03:21:48.061Z,24.29
2024-01-15T03:22:48.029Z,24.29
2024-01-15T03:23:48.052Z,24.28
2024-01-15T03:24:48.234Z,24.28
2024-01-15T03:25:48.129Z,24.29
2024-01-15T03:26:48.140Z,24.28
2024-01-15T03:27:48.200Z,24.28
2024-01-15T03:28:48.197Z,24.28
2024-01-15T03:29:48.239Z,24.29
2024-01-15T03:30:48.383Z,24.30
2024-01-15T03:31:48.469Z,24.30
2024-01-15T03:32:48.458Z,24.31
2024-01-15T03:33:48.508Z,24.30
2024-01-15T03:34:48.642Z,24.31
2024-01-15T03:35:48.416Z,24.31
2024-01-15T03:36:48.578Z,24.31
2024-01-15T03:37:48.465Z,24.31
2024-01-15T03:38:48.565Z,24.32
2024-01-15T03:39:48.769Z,24.32
2024-01-15T03:40:48.799Z,24.33
2024-01-15T03:41:48.713Z,24.33
2024-01-15T03:42:48.918Z,24.34
2024-01-15T03:43:48.859Z,24.35
2024-01-15T03:44:48.822Z,24.35
2024-01-15T03:45:48.934Z,24.35
2024-01-15T03:46:48.920Z,24.36
2024-01-15T03:47:49.012Z,24.36
2024-01-15T03:48:49.104Z,24.36
2024-01-15T03:49:49.156Z,24.36
2024-01-15T03:50:49.037Z,24.37
2024-01-15T03:51:49.231Z,24.37
2024-01-15T03:52:49.098Z,24.36
2024-01-15T03:53:49.117Z,24.35
2024-01-15T03:54:49.211Z,24.35
2024-01-15T03:55:49.276Z,24.35
2024-01-15T03:56:49.237Z,24.35
2024-01-15T03:57:49.312Z,24.35
2024-01-15T03:58:49.283Z,24.35
2024-01-15T03:59:49.313Z,24.35
2024-01-15T04:00:49.497Z,24.35
2024-01-15T04:02:49.468Z,24.36
2024-01-15T04:03:49.573Z,24.37
2024-01-15T04:04:49.564Z,24.37
2024-01-15T04:05:49.515Z,24.36
2024-01-15T04:06:49.701Z,24.37
2024-01-15T04:07:49.646Z,24.38
2024-01-15T04:08:49.674Z,24.37
2024-01-15T04:09:49.981Z,24.37
2024-01-15T04:10:49.843Z,24.39
2024-01-15T04:11:49.953Z,24.39
2024-01-15T04:12:50.043Z,24.38
2024-01-15T04:13:50.037Z,24.39
2024-01-15T04:14:49.998Z,24.40
2024-01-15T04:15:50.180Z,24.39
2024-01-15T04:16:50.067Z,24.40
2024-01-15T04:17:50.130Z,24.40
2024-01-15T04:18:50.176Z,24.40
2024-01-15T04:19:50.309Z,24.41
2024-01-15T04:20:50.219Z,24.40
2024-01-15T04:21:57.439Z,24.37
2024-01-15T04:22:57.400Z,24.39
2024-01-15T04:23:57.383Z,24.38
2024-01-15T04:24:57.504Z,24.38
2024-01-15T04:25:57.414Z,24.38
2024-01-15T04:26:57.439Z,24.38
2024-01-15T04:27:57.417Z,24.37
2024-01-15T04:28:57.402Z,24.38
2024-01-15T04:29:57.400Z,24.38
2024-01-15T04:31:04.651Z,24.36
2024-01-15T04:32:04.586Z,24.37
2024-01-15T04:33:04.679Z,24.37
2024-01-15T04:34:04.641Z,24.37
2024-01-15T04:35:04.588Z,24.37
2024-01-15T04:36:04.609Z,24.37
2024-01-15T04:37:04.563Z,24.37
2024-01-15T04:38:04.576Z,24.38
2024-01-15T04:39:04.572Z,24.38
2024-01-15T04:40:04.604Z,24.39
2024-01-15T04:41:04.608Z,24.38
2024-01-15T04:42:04.605Z,24.37
2024-01-15T04:43:04.616Z,24.37
2024-01-15T04:44:04.620Z,24.37
2024-01-15T04:45:04.636Z,24.36
2024-01-15T04:46:04.596Z,24.36
2024-01-15T04:47:04.657Z,24.36
2024-01-15T04:48:04.654Z,24.35
2024-01-15T04:49:04.708Z,24.34
2024-01-15T04:50:04.697Z,24.33
2024-01-15T04:51:04.626Z,24.32
2024-01-15T04:52:04.638Z,24.32
2024-01-15T04:53:04.623Z,24.31
2024-01-15T04:54:04.608Z,24.31
2024-01-15T04:55:04.626Z,24.31
2024-01-15T04:56:04.621Z,24.31
2024-01-15T04:57:04.621Z,24.31
2024-01-15T04:58:05.223Z,24.30
2024-01-15T04:59:04.631Z,24.29
2024-01-15T05:00:04.630Z,24.29
2024-01-15T05:01:04.727Z,24.27
2024-01-15T05:02:04.604Z,24.27
2024-01-15T05:03:04.668Z,24.27
2024-01-15T05:04:04.661Z,24.26
2024-01-15T05:05:04.626Z,24.25
2024-01-15T05:06:04.907Z,24.25
2024-01-15T05:07:04.652Z,24.24
2024-01-15T05:08:04.670Z,24.22
2024-01-15T05:09:04.690Z,24.22
2024-01-15T05:10:04.858Z,24.22
2024-01-15T05:11:04.704Z,24.20
2024-01-15T05:12:04.723Z,24.21
2024-01-15T05:13:04.706Z,24.20
2024-01-15T05:14:04.735Z,24.20
2024-01-15T05:15:04.759Z,24.20
2024-01-15T05:16:04.840Z,24.19
2024-01-15T05:17:06.226Z,24.19
2024-01-15T05:18:04.879Z,24.19
2024-01-15T05:19:04.890Z,24.18
2024-01-15T05:20:04.979Z,24.17
2024-01-15T05:21:04.777Z,24.17
2024-01-15T05:22:04.752Z,24.17
2024-01-15T05:23:04.740Z,24.16
2024-01-15T05:24:04.748Z,24.16
2024-01-15T05:25:04.771Z,24.15
2024-01-15T05:26:04.764Z,24.15
2024-01-15T05:27:04.776Z,24.14
2024-01-15T05:28:04.769Z,24.14
2024-01-15T05:29:04.770Z,24.14
2024-01-15T05:30:04.787Z,24.14
2024-01-15T05:31:04.876Z,24.13
2024-01-15T05:32:04.897Z,24.13
2024-01-15T05:33:04.804Z,24.13
2024-01-15T05:34:04.948Z,24.13
2024-01-15T05:35:04.890Z,24.13
2024-01-15T05:36:04.773Z,24.13
2024-01-15T05:37:04.784Z,24.12
2024-01-15T05:38:04.753Z,24.12
2024-01-15T05:39:04.790Z,24.12
2024-01-15T05:40:04.841Z,24.12
2024-01-15T05:41:05.279Z,24.12
2024-01-15T05:42:04.761Z,24.12
2024-01-15T05:43:04.777Z,24.11
2024-01-15T05:44:04.782Z,24.11
2024-01-15T05:45:04.793Z,24.12
2024-01-15T05:46:04.817Z,24.11
2024-01-15T05:47:04.775Z,24.12
2024-01-15T05:48:04.836Z,24.12
2024-01-15T05:49:04.863Z,24.11
2024-01-15T05:50:04.881Z,24.11
2024-01-15T05:51:04.795Z,24.11
2024-01-15T05:52:04.785Z,24.10
2024-01-15T05:53:04.790Z,24.11
2024-01-15T05:54:04.778Z,24.11
2024-01-15T05:55:04.778Z,24.10
2024-01-15T05:56:04.788Z,24.10
2024-01-15T05:57:04.760Z,24.10
2024-01-15T05:58:04.817Z,24.10
2024-01-15T05:59:04.775Z,24.09
2024-01-15T06:00:04.793Z,24.09
2024-01-15T06:01:27.920Z,24.08
2024-01-15T06:02:04.824Z,24.06
2024-01-15T06:03:04.763Z,24.08
2024-01-15T06:04:04.909Z,24.08
2024-01-15T06:05:04.858Z,24.08
2024-01-15T06:06:05.798Z,24.09
2024-01-15T06:07:04.946Z,24.09
2024-01-15T06:08:04.902Z,24.09
2024-01-15T06:09:04.958Z,24.09
2024-01-15T06:10:04.992Z,24.09
2024-01-15T06:11:05.070Z,24.09
2024-01-15T06:12:05.089Z,24.09
2024-01-15T06:13:05.185Z,24.09
2024-01-15T06:14:05.187Z,24.09
2024-01-15T06:15:05.266Z,24.09
2024-01-15T06:16:06.927Z,24.10
2024-01-15T06:17:05.304Z,24.10
2024-01-15T06:18:05.505Z,24.10
2024-01-15T06:19:05.411Z,24.09
2024-01-15T06:20:05.329Z,24.10
2024-01-15T06:21:05.303Z,24.10
2024-01-15T06:22:05.392Z,24.08
2024-01-15T06:23:05.270Z,24.09
2024-01-15T06:24:05.321Z,24.09
2024-01-15T06:25:05.357Z,24.08
2024-01-15T06:26:05.484Z,24.08
2024-01-15T06:27:05.514Z,24.08
2024-01-15T06:28:05.493Z,24.07
2024-01-15T06:29:05.501Z,24.07
2024-01-15T06:30:05.552Z,24.07
2024-01-15T06:31:05.896Z,24.06
2024-01-15T06:32:05.584Z,24.05
2024-01-15T06:33:05.607Z,24.05
2024-01-15T06:34:05.702Z,24.03
2024-01-15T06:35:05.563Z,24.02
2024-01-15T06:36:05.772Z,24.00
2024-01-15T06:37:05.826Z,23.98
2024-01-15T06:38:05.666Z,23.96
2024-01-15T06:39:05.740Z,23.96
2024-01-15T06:40:05.848Z,23.93
2024-01-15T06:41:05.894Z,23.93
2024-01-15T06:42:06.261Z,23.94
2024-01-15T06:43:05.998Z,23.95
2024-01-15T06:44:06.076Z,23.97
2024-01-15T06:45:06.069Z,23.99
2024-01-15T06:46:28.827Z,24.01
2024-01-15T06:47:06.117Z,24.00
2024-01-15T06:48:06.218Z,24.04
2024-01-15T06:49:06.216Z,24.09
2024-01-15T06:50:06.240Z,24.12
2024-01-15T06:51:06.113Z,24.16
2024-01-15T06:52:06.169Z,24.19
2024-01-15T06:53:06.133Z,24.21
2024-01-15T06:54:06.092Z,24.24
2024-01-15T06:55:06.117Z,24.25
2024-01-15T06:56:06.115Z,24.29
2024-01-15T06:57:06.136Z,24.32
2024-01-15T06:58:06.124Z,24.34
2024-01-15T06:59:06.140Z,24.38
2024-01-15T07:00:06.112Z,24.40
2024-01-15T07:01:06.373Z,24.42
2024-01-15T07:02:06.176Z,24.43
2024-01-15T07:03:06.201Z,24.45
2024-01-15T07:04:06.194Z,24.46
2024-01-15T07:05:06.265Z,24.48
2024-01-15T07:06:06.254Z,24.51
2024-01-15T07:07:06.333Z,24.52
2024-01-15T07:08:06.427Z,24.52
2024-01-15T07:09:06.510Z,24.54
2024-01-15T07:10:06.554Z,24.56
2024-01-15T07:11:06.629Z,24.57
2024-01-15T07:12:06.682Z,24.59
2024-01-15T07:13:06.767Z,24.61
2024-01-15T07:14:06.778Z,24.65
2024-01-15T07:15:06.876Z,24.65
2024-01-15T07:16:07.013Z,24.67
2024-01-15T07:17:06.990Z,24.69
2024-01-15T07:18:07.072Z,24.70
2024-01-15T07:19:07.198Z,24.74
2024-01-15T07:20:07.235Z,24.78
2024-01-15T07:21:07.233Z,24.80
2024-01-15T07:22:07.294Z,24.83
2024-01-15T07:23:07.314Z,24.85
2024-01-15T07:24:07.382Z,24.85
2024-01-15T07:25:07.573Z,24.85
2024-01-15T07:26:07.485Z,24.85
2024-01-15T07:27:07.574Z,24.86
2024-01-15T07:28:07.576Z,24.87
2024-01-15T07:29:07.618Z,24.86
2024-01-15T07:30:07.751Z,24.87
2024-01-15T07:31:07.754Z,24.87
2024-01-15T07:32:07.705Z,24.86
2024-01-15T07:33:07.887Z,24.87
2024-01-15T07:34:07.812Z,24.89
2024-01-15T07:35:07.756Z,24.89
2024-01-15T07:36:07.759Z,24.88
2024-01-15T07:37:07.868Z,24.87
2024-01-15T07:38:07.797Z,24.89
2024-01-15T07:39:07.869Z,24.90
2024-01-15T07:40:08.135Z,24.91
2024-01-15T07:41:08.802Z,24.91
2024-01-15T07:42:08.372Z,24.92
2024-01-15T07:43:07.883Z,24.92
2024-01-15T07:44:07.871Z,24.93
2024-01-15T07:45:07.958Z,24.94
2024-01-15T07:46:08.026Z,24.94
2024-01-15T07:47:07.959Z,24.94
2024-01-15T07:48:08.031Z,24.95
2024-01-15T07:49:08.047Z,24.96
2024-01-15T07:50:08.231Z,24.97
2024-01-15T07:51:08.880Z,24.98
2024-01-15T07:52:08.114Z,24.98
2024-01-15T07:53:08.166Z,24.97
2024-01-15T07:54:08.248Z,24.98
2024-01-15T07:55:08.303Z,24.98
2024-01-15T07:56:08.320Z,24.98
2024-01-15T07:57:08.444Z,24.99
2024-01-15T07:58:15.712Z,24.97
2024-01-15T07:59:09.413Z,24.97
2024-01-15T08:00:08.564Z,24.97
2024-01-15T08:01:08.573Z,24.93
2024-01-15T08:02:08.839Z,24.93
2024-01-15T08:03:08.491Z,24.93
2024-01-15T08:04:08.502Z,24.94
2024-01-15T08:05:08.457Z,24.94
2024-01-15T08:06:08.532Z,24.94
2024-01-15T08:07:08.888Z,24.92
2024-01-15T08:08:08.455Z,24.92
2024-01-15T08:09:08.477Z,24.93
2024-01-15T08:10:08.482Z,24.93
2024-01-15T08:11:08.504Z,24.93
2024-01-15T08:12:08.546Z,24.93
2024-01-15T08:13:08.521Z,24.94
2024-01-15T08:14:08.520Z,24.93
2024-01-15T08:15:08.569Z,24.93
2024-01-15T08:16:09.364Z,24.94
2024-01-15T08:17:08.814Z,24.94
2024-01-15T08:18:08.627Z,24.94
2024-01-15T08:19:08.792Z,24.94
2024-01-15T08:20:08.697Z,24.93
2024-01-15T08:21:08.605Z,24.94
2024-01-15T08:22:09.340Z,24.93
2024-01-15T08:23:08.585Z,24.93
2024-01-15T08:24:08.600Z,24.93
2024-01-15T08:25:08.632Z,24.92
2024-01-15T08:26:08.676Z,24.93
2024-01-15T08:27:09.400Z,24.93
2024-01-15T08:28:08.750Z,24.93
2024-01-15T08:29:08.829Z,24.94
2024-01-15T08:30:08.925Z,24.95
2024-01-15T08:31:09.109Z,24.93
2024-01-15T08:32:09.010Z,24.94
2024-01-15T08:33:14.724Z,24.94
2024-01-15T08:34:10.160Z,24.94
2024-01-15T08:35:09.164Z,24.94
2024-01-15T08:36:09.110Z,24.90
2024-01-15T08:37:09.846Z,24.84
2024-01-15T08:38:09.048Z,24.74
2024-01-15T08:39:09.164Z,24.65
2024-01-15T08:40:09.047Z,24.56
2024-01-15T08:41:09.837Z,24.49
2024-01-15T08:42:09.199Z,24.39
2024-01-15T08:43:09.051Z,24.31
2024-01-15T08:44:09.070Z,24.26
2024-01-15T08:45:09.116Z,24.22
2024-01-15T08:46:09.798Z,24.17
2024-01-15T08:47:09.065Z,24.12
2024-01-15T08:48:09.535Z,24.08
2024-01-15T08:49:09.165Z,24.03
2024-01-15T08:50:09.019Z,24.00
2024-01-15T08:51:09.236Z,23.98
2024-01-15T08:52:09.078Z,23.97
2024-01-15T08:53:09.110Z,23.96
2024-01-15T08:54:09.123Z,23.93
2024-01-15T08:55:09.062Z,23.90
2024-01-15T08:56:09.103Z,23.88
2024-01-15T08:57:09.126Z,23.86
2024-01-15T08:58:09.244Z,23.84
2024-01-15T08:59:09.187Z,23.83
2024-01-15T09:00:09.264Z,23.81
2024-01-15T09:01:09.327Z,23.81
2024-01-15T09:02:09.308Z,23.80
2024-01-15T09:03:09.370Z,23.78
2024-01-15T09:04:09.460Z,23.77
2024-01-15T09:05:09.539Z,23.76
2024-01-15T09:06:09.541Z,23.76
2024-01-15T09:07:09.501Z,23.74
2024-01-15T09:08:09.543Z,23.75
2024-01-15T09:09:09.543Z,23.76
2024-01-15T09:10:09.550Z,23.78
2024-01-15T09:11:09.517Z,23.80
2024-01-15T09:12:09.573Z,23.83
2024-01-15T09:13:09.558Z,23.84
2024-01-15T09:14:09.544Z,23.84
2024-01-15T09:15:09.624Z,23.82
2024-01-15T09:16:09.632Z,23.80
2024-01-15T09:17:09.572Z,23.77
2024-01-15T09:18:09.709Z,23.74
2024-01-15T09:19:09.794Z,23.72
2024-01-15T09:20:09.788Z,23.71
2024-01-15T09:21:09.786Z,23.72
2024-01-15T09:22:09.768Z,23.74
2024-01-15T09:23:09.913Z,23.77
2024-01-15T09:24:09.954Z,23.78
2024-01-15T09:25:09.929Z,23.78
2024-01-15T09:26:09.986Z,23.78
2024-01-15T09:27:09.968Z,23.77
2024-01-15T09:28:09.962Z,23.79
2024-01-15T09:29:09.966Z,23.79
2024-01-15T09:30:10.130Z,23.81
2024-01-15T09:31:10.111Z,23.82
2024-01-15T09:32:10.009Z,23.84
2024-01-15T09:33:11.950Z,23.85
2024-01-15T09:34:10.042Z,23.82
2024-01-15T09:35:10.052Z,23.78
2024-01-15T09:36:10.060Z,23.74
2024-01-15T09:37:13.022Z,23.68
2024-01-15T09:38:10.934Z,23.65
2024-01-15T09:39:10.153Z,23.60
2024-01-15T09:40:10.082Z,23.53
2024-01-15T09:41:10.255Z,23.49
2024-01-15T09:42:10.199Z,23.46
2024-01-15T09:43:10.414Z,23.45
2024-01-15T09:44:10.119Z,23.45
2024-01-15T09:45:10.175Z,23.47
2024-01-15T09:46:10.124Z,23.48
2024-01-15T09:47:10.116Z,23.49
2024-01-15T09:48:10.221Z,23.50
2024-01-15T09:49:10.243Z,23.52
2024-01-15T09:50:10.242Z,23.54
2024-01-15T09:51:10.176Z,23.54
2024-01-15T09:53:10.119Z,23.46
2024-01-15T09:54:10.145Z,23.29
2024-01-15T09:55:10.136Z,23.14
2024-01-15T09:56:10.147Z,23.03
2024-01-15T09:57:10.144Z,22.90
2024-01-15T09:58:10.372Z,22.78
2024-01-15T09:59:10.104Z,22.67
2024-01-15T10:00:10.127Z,22.59
2024-01-15T10:01:10.169Z,22.49
2024-01-15T10:02:10.109Z,22.36
2024-01-15T10:03:10.142Z,22.24
2024-01-15T10:04:10.141Z,22.22
2024-01-15T10:05:10.146Z,22.23
2024-01-15T10:06:10.210Z,22.23
2024-01-15T10:07:10.108Z,22.25
2024-01-15T10:08:10.098Z,22.31
2024-01-15T10:09:10.143Z,22.36
2024-01-15T10:10:10.193Z,22.41
2024-01-15T10:11:10.123Z,22.47
2024-01-15T10:12:10.099Z,22.51
2024-01-15T10:13:10.375Z,22.54
2024-01-15T10:14:10.114Z,22.55
2024-01-15T10:15:10.148Z,22.56
2024-01-15T10:16:10.172Z,22.59
2024-01-15T10:17:10.128Z,22.68
2024-01-15T10:18:10.281Z,22.75
2024-01-15T10:19:10.495Z,22.84
2024-01-15T10:20:10.350Z,22.92
2024-01-15T10:21:10.383Z,23.00
2024-01-15T10:22:10.413Z,23.10
2024-01-15T10:23:10.475Z,23.20
2024-01-15T10:24:10.561Z,23.30
2024-01-15T10:25:10.520Z,23.40
2024-01-15T10:26:10.546Z,23.50
2024-01-15T10:27:10.603Z,23.60
2024-01-15T10:28:10.554Z,23.71
2024-01-15T10:29:10.591Z,23.81
2024-01-15T10:30:10.687Z,23.91
2024-01-15T10:31:10.730Z,23.99
2024-01-15T10:32:11.001Z,24.08
2024-01-15T10:33:10.873Z,24.16
2024-01-15T10:34:10.917Z,24.25
2024-01-15T10:35:10.892Z,24.30
2024-01-15T10:36:11.062Z,24.37
2024-01-15T10:37:11.024Z,24.41
2024-01-15T10:38:10.988Z,24.45
2024-01-15T10:39:11.026Z,24.50
2024-01-15T10:40:11.012Z,24.58
2024-01-15T10:41:11.088Z,24.68
2024-01-15T10:42:11.196Z,24.72
2024-01-15T10:43:11.196Z,24.78
2024-01-15T10:44:11.296Z,24.82
2024-01-15T10:45:11.374Z,24.85
2024-01-15T10:46:11.444Z,24.88
2024-01-15T10:47:11.422Z,24.94
2024-01-15T10:48:11.658Z,24.99
2024-01-15T10:49:11.635Z,25.02
2024-01-15T10:50:11.612Z,25.06
2024-01-15T10:51:11.959Z,25.10
2024-01-15T10:52:11.752Z,25.13
2024-01-15T10:53:11.783Z,25.17
2024-01-15T10:54:11.955Z,25.20
2024-01-15T10:55:16.092Z,25.20
2024-01-15T10:56:12.939Z,25.24
2024-01-15T10:57:11.906Z,25.28
2024-01-15T10:58:11.913Z,25.33
2024-01-15T10:59:11.858Z,25.37
2024-01-15T11:00:11.943Z,25.42
2024-01-15T11:01:12.001Z,25.43
2024-01-15T11:02:14.463Z,25.44
2024-01-15T11:03:12.230Z,25.46
2024-01-15T11:04:12.335Z,25.47
2024-01-15T11:05:12.211Z,25.50
2024-01-15T11:06:12.441Z,25.52
2024-01-15T11:07:12.332Z,25.55
2024-01-15T11:08:12.428Z,25.57
2024-01-15T11:09:12.443Z,25.57
2024-01-15T11:10:12.375Z,25.58
2024-01-15T11:11:12.380Z,25.58
2024-01-15T11:12:12.496Z,25.59
2024-01-15T11:13:12.393Z,25.60
2024-01-15T11:14:12.912Z,25.61
2024-01-15T11:15:12.501Z,25.61
2024-01-15T11:16:12.492Z,25.62
2024-01-15T11:17:12.528Z,25.64
2024-01-15T11:18:12.666Z,25.63
2024-01-15T11:19:14.027Z,25.60
2024-01-15T11:20:12.569Z,25.59
2024-01-15T11:21:12.663Z,25.58
2024-01-15T11:22:12.608Z,25.57
2024-01-15T11:23:13.462Z,25.56
2024-01-15T11:24:12.936Z,25.55
2024-01-15T11:25:12.725Z,25.54
2024-01-15T11:26:12.727Z,25.54
2024-01-15T11:27:12.827Z,25.53
2024-01-15T11:28:12.772Z,25.55
2024-01-15T11:29:12.825Z,25.55
2024-01-15T11:30:12.994Z,25.56
2024-01-15T11:31:12.942Z,25.56
2024-01-15T11:32:13.004Z,25.58
2024-01-15T11:33:13.144Z,25.58
2024-01-15T11:34:13.184Z,25.57
2024-01-15T11:35:13.266Z,25.60
2024-01-15T11:36:13.296Z,25.59
2024-01-15T11:37:13.292Z,25.61
2024-01-15T11:38:13.362Z,25.62
2024-01-15T11:39:13.460Z,25.60
2024-01-15T11:40:13.467Z,25.51
2024-01-15T11:41:13.517Z,25.38
2024-01-15T11:42:13.661Z,25.27
2024-01-15T11:43:13.586Z,25.17
2024-01-15T11:44:13.586Z,25.07
2024-01-15T11:45:13.686Z,25.02
2024-01-15T11:46:13.665Z,24.97
2024-01-15T11:47:16.007Z,24.93
2024-01-15T11:48:14.289Z,24.89
2024-01-15T11:49:13.983Z,24.84
2024-01-15T11:50:13.722Z,24.78
2024-01-15T11:51:13.729Z,24.76
2024-01-15T11:52:13.683Z,24.74
2024-01-15T11:53:13.662Z,24.67
2024-01-15T11:54:13.766Z,24.66
2024-01-15T11:55:13.722Z,24.66
2024-01-15T11:56:13.700Z,24.65
2024-01-15T11:57:13.799Z,24.63
2024-01-15T11:58:13.690Z,24.62
2024-01-15T11:59:13.691Z,24.61
2024-01-15T12:00:13.828Z,24.62
2024-01-15T12:01:13.876Z,24.62
2024-01-15T12:02:13.697Z,24.63
2024-01-15T12:03:13.768Z,24.63
2024-01-15T12:04:14.778Z,24.65
2024-01-15T12:05:13.775Z,24.67
2024-01-15T12:06:13.732Z,24.70
2024-01-15T12:07:13.861Z,24.72
2024-01-15T12:08:13.770Z,24.74
2024-01-15T12:09:13.805Z,24.75
2024-01-15T12:10:15.338Z,24.76
2024-01-15T12:11:13.724Z,24.76
2024-01-15T12:12:13.778Z,24.77
2024-01-15T12:13:13.754Z,24.74
2024-01-15T12:14:13.936Z,24.74
2024-01-15T12:15:13.747Z,24.74
2024-01-15T12:16:13.768Z,24.76
2024-01-15T12:17:13.843Z,24.75
2024-01-15T12:18:13.907Z,24.76
2024-01-15T12:19:13.866Z,24.75
2024-01-15T12:20:13.801Z,24.77
2024-01-15T12:21:13.749Z,24.79
2024-01-15T12:22:13.788Z,24.83
2024-01-15T12:23:13.726Z,24.82
2024-01-15T12:24:13.770Z,24.81
2024-01-15T12:25:13.730Z,24.80
2024-01-15T12:26:13.743Z,24.79
2024-01-15T12:27:13.813Z,24.79
2024-01-15T12:28:13.766Z,24.80
2024-01-15T12:29:13.748Z,24.79
2024-01-15T12:30:14.060Z,24.79
2024-01-15T12:31:14.540Z,24.78
2024-01-15T12:32:14.498Z,24.79
2024-01-15T12:33:13.847Z,24.80
2024-01-15T12:34:13.808Z,24.81
2024-01-15T12:35:13.999Z,24.84
2024-01-15T12:36:13.746Z,24.85
2024-01-15T12:37:13.760Z,24.88
2024-01-15T12:38:13.813Z,24.90
2024-01-15T12:39:13.783Z,24.93
2024-01-15T12:40:13.992Z,24.96
2024-01-15T12:41:13.746Z,24.97
2024-01-15T12:42:13.772Z,24.99
2024-01-15T12:43:13.815Z,25.01
2024-01-15T12:44:13.777Z,25.03
2024-01-15T12:45:13.826Z,25.04
2024-01-15T12:46:16.102Z,25.05
2024-01-15T12:47:13.788Z,25.04
2024-01-15T12:48:13.842Z,25.06
2024-01-15T12:49:13.837Z,25.06
2024-01-15T12:50:19.376Z,25.06
2024-01-15T12:51:14.822Z,25.06
2024-01-15T12:52:13.783Z,25.07
2024-01-15T12:53:13.761Z,25.06
2024-01-15T12:54:13.787Z,25.06
2024-01-15T12:55:13.807Z,25.06